Time;durP1;ratioP1;P1;durP2;ratioP2;P2;SDS_P1;SDS_P2;PMS_P1;PMS_P2;Temp;Humidity;BMP_temperature;BMP_pressure;BME280_temperature;BME280_humidity;BME280_pressure;Samples;Min_cycle;Max_cycle;Signal;HPM_P1;HPM_P2
2021/09/21 00:01:45;;;;;;;20.42;15.95;;;8.10;99.90;;;;;;5015255;28;20241;-56
2021/09/21 00:04:12;;;;;;;19.23;15.15;;;8.10;99.90;;;;;;4991261;28;20255;-55
2021/09/21 00:06:40;;;;;;;17.70;14.40;;;8.00;99.90;;;;;;5000138;28;20432;-53
2021/09/21 00:09:07;;;;;;;18.35;14.95;;;8.00;99.90;;;;;;4992338;28;20223;-55
2021/09/21 00:11:35;;;;;;;15.68;13.88;;;8.00;99.90;;;;;;4994877;28;20210;-57
2021/09/21 00:14:03;;;;;;;16.13;13.35;;;8.00;99.90;;;;;;4994135;28;20220;-55
2021/09/21 00:16:31;;;;;;;17.85;13.70;;;7.80;99.90;;;;;;4989110;28;20241;-53
2021/09/21 00:18:58;;;;;;;18.42;13.48;;;7.80;99.90;;;;;;4982343;28;20269;-52
2021/09/21 00:21:25;;;;;;;17.67;13.93;;;7.90;99.90;;;;;;4992043;28;20240;-53
2021/09/21 00:23:52;;;;;;;16.75;14.88;;;7.80;99.90;;;;;;4984384;28;20202;-54
2021/09/21 00:26:19;;;;;;;17.95;15.45;;;7.80;99.90;;;;;;4987103;28;20416;-54
2021/09/21 00:28:47;;;;;;;20.85;14.90;;;7.80;99.90;;;;;;4993601;28;20588;-56
2021/09/21 00:31:15;;;;;;;17.17;13.05;;;7.80;99.90;;;;;;4989249;28;20257;-54
2021/09/21 00:34:05;;;;;;;31.58;14.85;;;7.80;99.90;;;;;;4984144;28;20209;-54
2021/09/21 00:36:43;;;;;;;16.80;13.40;;;7.70;99.90;;;;;;4999545;28;20224;-57
2021/09/21 00:39:11;;;;;;;20.25;13.30;;;7.70;99.90;;;;;;4990328;28;20225;-53
2021/09/21 00:41:40;;;;;;;17.73;13.55;;;7.70;99.90;;;;;;5000150;28;20204;-54
2021/09/21 00:44:08;;;;;;;17.63;14.55;;;7.70;99.90;;;;;;4993097;28;20208;-57
2021/09/21 00:46:36;;;;;;;16.20;13.80;;;7.60;99.90;;;;;;5001778;28;20221;-55
2021/09/21 00:49:04;;;;;;;17.02;12.82;;;7.70;99.90;;;;;;5000796;28;20221;-54
2021/09/21 00:51:31;;;;;;;17.20;13.73;;;7.70;99.90;;;;;;4986517;28;20201;-51
2021/09/21 00:53:58;;;;;;;22.33;15.05;;;7.60;99.90;;;;;;5000238;28;20209;-55
2021/09/21 00:56:25;;;;;;;17.50;14.80;;;7.70;99.90;;;;;;5003462;28;20208;-52
2021/09/21 00:58:53;;;;;;;18.13;15.20;;;7.60;99.90;;;;;;5006866;28;20579;-56
2021/09/21 01:01:20;;;;;;;17.08;15.18;;;7.60;99.90;;;;;;4994949;28;20314;-52
2021/09/21 01:03:48;;;;;;;16.73;14.43;;;7.60;99.90;;;;;;5002381;28;20212;-54
2021/09/21 01:06:15;;;;;;;18.23;16.33;;;7.60;99.90;;;;;;4994579;28;20272;-54
2021/09/21 01:08:42;;;;;;;17.27;14.35;;;7.60;99.90;;;;;;4990498;28;20220;-54
2021/09/21 01:11:13;;;;;;;18.25;15.85;;;7.70;99.90;;;;;;4996158;28;20201;-51
2021/09/21 01:13:41;;;;;;;20.45;14.77;;;7.70;99.90;;;;;;4990216;28;20205;-50
2021/09/21 01:16:09;;;;;;;22.90;15.88;;;7.70;99.90;;;;;;5003326;28;20197;-55
2021/09/21 01:18:36;;;;;;;19.30;14.25;;;7.70;99.90;;;;;;4994724;28;20610;-54
2021/09/21 01:21:06;;;;;;;16.80;14.70;;;7.70;99.90;;;;;;4998254;28;20257;-50
2021/09/21 01:23:53;;;;;;;18.83;14.30;;;7.70;99.90;;;;;;5001940;28;20198;-55
2021/09/21 01:26:21;;;;;;;21.80;15.05;;;7.70;99.90;;;;;;4998290;28;20420;-55
2021/09/21 01:28:50;;;;;;;17.17;15.35;;;7.70;99.90;;;;;;4996673;28;20301;-50
2021/09/21 01:31:18;;;;;;;22.75;14.73;;;7.70;99.90;;;;;;5005572;28;20334;-57
2021/09/21 01:33:50;;;;;;;18.85;14.38;;;7.70;99.90;;;;;;5006265;28;20430;-50
2021/09/21 01:36:20;;;;;;;22.40;15.27;;;7.70;99.90;;;;;;5003667;28;20400;-53
2021/09/21 01:38:49;;;;;;;17.80;15.70;;;7.70;99.90;;;;;;5000392;28;20221;-58
2021/09/21 01:41:17;;;;;;;22.35;16.75;;;7.70;99.90;;;;;;4998263;28;20248;-58
2021/09/21 01:43:45;;;;;;;21.67;15.70;;;7.70;99.90;;;;;;5005994;28;20209;-57
2021/09/21 01:46:23;;;;;;;16.48;14.13;;;7.70;99.90;;;;;;5007220;28;20437;-59
2021/09/21 01:48:50;;;;;;;18.40;15.30;;;7.70;99.90;;;;;;5006189;28;20283;-57
2021/09/21 01:51:28;;;;;;;22.48;15.57;;;7.60;99.90;;;;;;4999429;28;20208;-52
2021/09/21 01:59:24;;;;;;;16.83;13.65;;;7.60;99.90;;;;;;4995467;28;20639;-55
2021/09/21 02:01:51;;;;;;;18.35;14.20;;;7.70;99.90;;;;;;4998562;28;20213;-53
2021/09/21 02:04:20;;;;;;;19.27;14.40;;;7.70;99.90;;;;;;5000230;28;20267;-53
2021/09/21 02:06:47;;;;;;;19.35;16.38;;;7.70;99.90;;;;;;4999064;28;20229;-55
2021/09/21 02:09:15;;;;;;;16.20;14.48;;;7.80;99.90;;;;;;4995593;28;20218;-54
2021/09/21 02:11:44;;;;;;;23.45;16.17;;;7.80;99.90;;;;;;5002186;28;20209;-52
2021/09/21 02:14:14;;;;;;;22.42;15.57;;;7.80;99.90;;;;;;5003170;28;20205;-55
2021/09/21 02:16:42;;;;;;;18.73;14.48;;;7.90;99.90;;;;;;4998969;28;20207;-54
2021/09/21 02:19:10;;;;;;;18.08;15.10;;;8.00;99.90;;;;;;4991251;28;20317;-54
2021/09/21 02:21:37;;;;;;;18.30;15.30;;;8.00;99.90;;;;;;4985579;28;20241;-52
2021/09/21 02:24:05;;;;;;;22.05;15.50;;;8.00;99.90;;;;;;5001526;28;20252;-55
2021/09/21 02:26:32;;;;;;;20.15;16.30;;;7.90;99.90;;;;;;4983594;28;20257;-57
2021/09/21 02:28:59;;;;;;;19.48;15.55;;;7.90;99.90;;;;;;4986225;28;20226;-57
2021/09/21 02:31:27;;;;;;;18.83;16.20;;;7.90;99.90;;;;;;4994157;28;20260;-51
2021/09/21 02:33:54;;;;;;;19.98;15.30;;;7.90;99.90;;;;;;5000510;28;20209;-59
2021/09/21 02:36:21;;;;;;;25.27;16.00;;;7.80;99.90;;;;;;4986558;28;20245;-54
2021/09/21 02:38:48;;;;;;;19.98;15.63;;;7.70;99.90;;;;;;5002432;28;20229;-52
2021/09/21 02:41:15;;;;;;;29.20;16.25;;;7.60;99.90;;;;;;4997318;28;20198;-58
2021/09/21 02:43:42;;;;;;;19.20;12.80;;;7.70;99.90;;;;;;4994893;28;20205;-55
2021/09/21 02:46:10;;;;;;;23.50;16.05;;;7.60;99.90;;;;;;4988799;28;20197;-55
2021/09/21 02:48:37;;;;;;;23.35;16.90;;;7.60;99.90;;;;;;4995521;28;20302;-56
2021/09/21 02:51:05;;;;;;;26.63;16.65;;;7.60;99.90;;;;;;4997131;28;20253;-54
2021/09/21 02:53:32;;;;;;;20.10;16.45;;;7.50;99.90;;;;;;4988516;28;20199;-57
2021/09/21 02:56:00;;;;;;;21.00;15.40;;;7.50;99.90;;;;;;4993653;28;20197;-55
2021/09/21 02:58:27;;;;;;;21.58;18.25;;;7.50;99.90;;;;;;4987745;28;20570;-55
2021/09/21 03:00:56;;;;;;;23.95;19.08;;;7.50;99.90;;;;;;4992353;28;20253;-53
2021/09/21 03:03:28;;;;;;;27.67;23.13;;;7.40;99.90;;;;;;4998094;28;20229;-54
2021/09/21 03:06:02;;;;;;;25.45;20.52;;;7.40;99.90;;;;;;4997453;28;20487;-48
2021/09/21 03:08:33;;;;;;;28.83;22.48;;;7.40;99.90;;;;;;5001870;28;20221;-55
2021/09/21 03:11:15;;;;;;;28.92;22.98;;;7.40;99.90;;;;;;4993363;28;20461;-55
2021/09/21 03:19:13;;;;;;;26.75;21.98;;;7.30;99.90;;;;;;4994516;28;20560;-58
2021/09/21 03:21:41;;;;;;;26.42;20.33;;;7.30;99.90;;;;;;5001101;28;20204;-54
2021/09/21 03:24:08;;;;;;;24.48;18.70;;;7.30;99.90;;;;;;4999858;28;20244;-56
2021/09/21 03:26:35;;;;;;;31.75;21.15;;;7.40;99.90;;;;;;4987745;28;20244;-55
2021/09/21 03:29:02;;;;;;;25.95;17.95;;;7.40;99.90;;;;;;4999798;28;20221;-55
2021/09/21 03:31:30;;;;;;;28.33;18.70;;;7.40;99.90;;;;;;4996220;28;20206;-55
2021/09/21 03:33:57;;;;;;;25.95;18.90;;;7.30;99.90;;;;;;5001313;28;20212;-55
2021/09/21 03:36:24;;;;;;;22.15;16.60;;;7.30;99.90;;;;;;4995908;28;20248;-54
2021/09/21 03:38:51;;;;;;;19.08;15.48;;;7.20;99.90;;;;;;4994513;28;20237;-55
2021/09/21 03:41:19;;;;;;;19.20;15.68;;;7.30;99.90;;;;;;4990366;28;20209;-52
2021/09/21 03:43:46;;;;;;;21.65;15.68;;;7.30;99.90;;;;;;4986690;28;20201;-59
2021/09/21 03:46:13;;;;;;;21.17;18.02;;;7.30;99.90;;;;;;5001080;28;20216;-58
2021/09/21 03:48:40;;;;;;;22.58;18.27;;;7.40;99.90;;;;;;5000327;28;20237;-54
2021/09/21 03:51:07;;;;;;;25.10;18.15;;;7.40;99.90;;;;;;4999621;28;20212;-54
2021/09/21 03:53:35;;;;;;;26.85;17.58;;;7.40;99.90;;;;;;5000348;28;20251;-55
2021/09/21 03:56:03;;;;;;;28.73;19.75;;;7.50;99.90;;;;;;4989941;28;20202;-55
2021/09/21 03:58:30;;;;;;;23.73;18.00;;;7.60;99.90;;;;;;4988754;28;20497;-53
2021/09/21 04:00:57;;;;;;;22.10;18.20;;;7.70;99.90;;;;;;4988597;28;20243;-55
2021/09/21 04:03:24;;;;;;;26.58;18.70;;;7.80;99.90;;;;;;4993885;28;20209;-56
2021/09/21 04:05:51;;;;;;;26.35;19.35;;;8.00;99.90;;;;;;4994001;28;20201;-57
2021/09/21 04:08:19;;;;;;;27.08;19.92;;;8.00;99.90;;;;;;4993452;28;20225;-56
2021/09/21 04:10:46;;;;;;;23.95;19.15;;;8.20;99.90;;;;;;4995286;28;20209;-56
2021/09/21 04:13:13;;;;;;;22.00;17.50;;;8.30;99.90;;;;;;4990939;28;20209;-54
2021/09/21 04:15:40;;;;;;;28.50;18.80;;;8.30;99.90;;;;;;5000480;28;20202;-54
2021/09/21 04:18:08;;;;;;;25.15;19.58;;;8.40;99.90;;;;;;4998724;28;20481;-57
2021/09/21 04:20:35;;;;;;;17.83;15.68;;;8.40;99.90;;;;;;4999701;28;20221;-56
2021/09/21 04:23:03;;;;;;;21.63;15.75;;;8.50;99.90;;;;;;4993996;28;20509;-53
2021/09/21 04:25:31;;;;;;;20.65;18.17;;;8.40;99.90;;;;;;4988012;28;20343;-57
2021/09/21 04:27:58;;;;;;;25.95;17.50;;;8.40;99.90;;;;;;4989716;28;20459;-55
2021/09/21 04:30:25;;;;;;;21.20;15.75;;;8.50;99.90;;;;;;4999527;28;20256;-53
2021/09/21 04:32:53;;;;;;;22.35;16.83;;;8.40;99.90;;;;;;4999275;28;20263;-58
2021/09/21 04:35:20;;;;;;;20.45;16.15;;;8.60;99.90;;;;;;4990648;28;20270;-57
2021/09/21 04:37:48;;;;;;;25.08;16.90;;;8.60;99.90;;;;;;5000768;28;20252;-58
2021/09/21 04:40:15;;;;;;;18.20;14.95;;;8.60;99.90;;;;;;5000449;28;20221;-57
2021/09/21 04:42:42;;;;;;;21.55;17.05;;;8.60;99.90;;;;;;4985647;28;20206;-55
2021/09/21 04:45:10;;;;;;;24.20;16.13;;;8.50;99.90;;;;;;4994852;28;20252;-55
2021/09/21 04:47:37;;;;;;;25.35;16.90;;;8.50;99.90;;;;;;4994602;28;20226;-56
2021/09/21 04:50:05;;;;;;;26.50;16.90;;;8.60;99.90;;;;;;4983964;28;20253;-52
2021/09/21 04:52:33;;;;;;;24.52;17.70;;;8.60;99.90;;;;;;4997360;28;20298;-55
2021/09/21 04:55:01;;;;;;;23.17;15.52;;;8.60;99.90;;;;;;5000870;28;20210;-56
2021/09/21 04:57:28;;;;;;;18.85;15.02;;;8.70;99.90;;;;;;4992087;28;20205;-57
2021/09/21 04:59:55;;;;;;;20.17;14.65;;;8.70;99.90;;;;;;4985993;28;20587;-54
2021/09/21 05:02:22;;;;;;;21.52;15.98;;;8.60;99.90;;;;;;4985887;28;20202;-58
2021/09/21 05:04:50;;;;;;;23.23;16.23;;;8.80;99.90;;;;;;4994777;28;20210;-58
2021/09/21 05:07:17;;;;;;;21.85;16.45;;;8.90;99.90;;;;;;4989439;28;20286;-58
2021/09/21 05:09:44;;;;;;;27.23;16.27;;;8.90;99.90;;;;;;4994697;28;20221;-59
2021/09/21 05:12:11;;;;;;;20.00;15.80;;;9.00;99.90;;;;;;4996477;28;20235;-58
2021/09/21 05:14:39;;;;;;;34.53;16.85;;;9.10;99.90;;;;;;4999858;28;20201;-55
2021/09/21 05:17:06;;;;;;;20.13;16.20;;;9.30;99.90;;;;;;4997751;28;20508;-53
2021/09/21 05:19:33;;;;;;;23.67;15.32;;;9.40;99.90;;;;;;4994507;28;20225;-54
2021/09/21 05:22:01;;;;;;;29.50;15.68;;;9.60;99.90;;;;;;4991406;28;20256;-53
2021/09/21 05:24:28;;;;;;;22.15;15.77;;;9.70;99.90;;;;;;4994384;28;20559;-55
2021/09/21 05:26:55;;;;;;;19.92;15.50;;;9.80;99.90;;;;;;4993453;28;20199;-53
2021/09/21 05:29:22;;;;;;;22.85;15.88;;;10.00;99.90;;;;;;4995432;28;20449;-57
2021/09/21 05:31:49;;;;;;;23.08;13.65;;;10.10;99.90;;;;;;4987727;28;20233;-59
2021/09/21 05:34:17;;;;;;;25.17;17.75;;;10.20;99.90;;;;;;4984953;28;20198;-55
2021/09/21 05:36:44;;;;;;;22.60;16.70;;;10.40;99.90;;;;;;4981899;28;20198;-57
2021/09/21 05:39:14;;;;;;;18.45;15.23;;;10.50;99.90;;;;;;4982394;28;20281;-57
2021/09/21 05:41:41;;;;;;;18.67;14.32;;;10.50;99.90;;;;;;4981482;28;20202;-57
2021/09/21 05:44:19;;;;;;;17.60;14.25;;;10.50;99.90;;;;;;4986665;28;20389;-56
2021/09/21 05:46:46;;;;;;;20.38;16.83;;;10.50;99.90;;;;;;4985799;28;20437;-57
2021/09/21 05:49:14;;;;;;;15.07;13.52;;;10.70;99.90;;;;;;4985036;28;20239;-56
2021/09/21 05:51:41;;;;;;;22.08;15.65;;;10.80;99.90;;;;;;4984141;28;20214;-58
2021/09/21 05:54:08;;;;;;;19.58;15.13;;;11.00;99.90;;;;;;4983664;28;20211;-56
2021/09/21 05:56:35;;;;;;;19.95;15.82;;;11.30;99.90;;;;;;4987426;28;20199;-59
2021/09/21 05:59:03;;;;;;;16.23;14.50;;;11.50;99.90;;;;;;5001987;28;20222;-59
2021/09/21 06:01:31;;;;;;;23.92;14.02;;;11.50;99.90;;;;;;4999531;28;20242;-54
2021/09/21 06:03:59;;;;;;;22.27;15.68;;;11.70;99.90;;;;;;5002455;28;20215;-56
2021/09/21 06:06:27;;;;;;;16.35;14.00;;;11.70;99.90;;;;;;4997722;28;20219;-57
2021/09/21 06:08:54;;;;;;;15.73;13.50;;;11.90;99.90;;;;;;5002388;28;20244;-57
2021/09/21 06:11:27;;;;;;;17.10;13.60;;;12.00;99.90;;;;;;4996458;28;20199;-57
2021/09/21 06:13:56;;;;;;;15.38;12.52;;;12.00;99.90;;;;;;4997506;28;20250;-58
2021/09/21 06:16:23;;;;;;;16.38;12.10;;;12.10;99.90;;;;;;4998791;28;20201;-58
2021/09/21 06:18:51;;;;;;;12.93;11.15;;;12.10;99.90;;;;;;4990283;28;20233;-56
2021/09/21 06:21:18;;;;;;;17.80;12.15;;;12.20;99.90;;;;;;4997644;28;20386;-57
2021/09/21 06:23:45;;;;;;;15.40;12.05;;;12.20;99.90;;;;;;4999755;28;20207;-58
2021/09/21 06:26:13;;;;;;;14.65;12.02;;;12.40;99.90;;;;;;4994736;28;20208;-57
2021/09/21 06:28:40;;;;;;;13.43;11.63;;;12.50;99.90;;;;;;4985094;28;20257;-56
2021/09/21 06:31:09;;;;;;;14.02;11.85;;;12.40;99.90;;;;;;4990716;28;20212;-56
2021/09/21 06:33:36;;;;;;;14.10;12.35;;;12.70;99.90;;;;;;4997532;28;20270;-54
2021/09/21 06:36:04;;;;;;;11.65;10.45;;;13.10;99.90;;;;;;5002549;28;20438;-58
2021/09/21 06:38:34;;;;;;;12.25;10.65;;;13.50;99.90;;;;;;5001996;28;20205;-55
2021/09/21 06:41:02;;;;;;;11.77;10.43;;;13.60;99.90;;;;;;4993121;28;20255;-56
2021/09/21 06:43:29;;;;;;;13.50;11.18;;;13.40;99.90;;;;;;4984952;28;20206;-56
2021/09/21 06:45:57;;;;;;;11.20;9.32;;;13.50;99.90;;;;;;5002226;28;20483;-52
2021/09/21 06:48:24;;;;;;;9.68;8.65;;;13.80;99.90;;;;;;5002076;28;20283;-56
2021/09/21 06:50:53;;;;;;;10.10;8.80;;;13.90;99.90;;;;;;4992405;28;20273;-57
2021/09/21 06:53:20;;;;;;;13.73;8.38;;;14.20;99.90;;;;;;4993853;28;20197;-55
2021/09/21 06:55:48;;;;;;;11.27;9.43;;;14.10;99.90;;;;;;4990552;28;20201;-59
2021/09/21 06:58:15;;;;;;;10.73;8.30;;;14.10;99.90;;;;;;5003133;28;20228;-58
2021/09/21 07:00:45;;;;;;;12.02;8.18;;;14.10;99.90;;;;;;5001772;28;20508;-56
2021/09/21 07:03:12;;;;;;;13.32;9.20;;;14.20;99.90;;;;;;4990535;28;20236;-57
2021/09/21 07:05:41;;;;;;;9.40;8.50;;;14.60;99.90;;;;;;4982244;28;20203;-56
2021/09/21 07:08:08;;;;;;;9.45;8.40;;;14.50;99.90;;;;;;4994327;28;20233;-58
2021/09/21 07:10:35;;;;;;;8.65;7.57;;;14.70;99.90;;;;;;5000662;28;20221;-57
2021/09/21 07:13:03;;;;;;;9.88;8.50;;;15.10;99.90;;;;;;4983098;28;20445;-58
2021/09/21 07:15:30;;;;;;;9.45;7.07;;;15.40;99.90;;;;;;5007972;28;20198;-58
2021/09/21 07:17:57;;;;;;;9.88;8.15;;;15.30;99.90;;;;;;5001325;28;20201;-58
2021/09/21 07:20:26;;;;;;;8.95;6.75;;;15.10;99.90;;;;;;4997737;28;20259;-56
2021/09/21 07:22:54;;;;;;;8.27;7.38;;;14.80;99.90;;;;;;4985844;28;20218;-58
2021/09/21 07:25:21;;;;;;;8.57;7.57;;;14.40;99.90;;;;;;4994216;28;20213;-54
2021/09/21 07:27:50;;;;;;;11.27;9.13;;;14.30;99.90;;;;;;4993757;28;20210;-56
2021/09/21 07:30:18;;;;;;;8.27;7.20;;;14.40;99.90;;;;;;4989800;28;20225;-57
2021/09/21 07:32:46;;;;;;;8.40;7.50;;;14.20;99.90;;;;;;4994390;28;20256;-56
2021/09/21 07:35:14;;;;;;;9.20;8.13;;;13.80;99.90;;;;;;4996723;28;20256;-58
2021/09/21 07:37:41;;;;;;;9.88;7.78;;;13.60;99.90;;;;;;4994003;28;20210;-56
2021/09/21 07:40:09;;;;;;;10.75;9.25;;;13.40;99.90;;;;;;4993221;28;20540;-57
2021/09/21 07:42:36;;;;;;;10.25;8.98;;;13.30;99.90;;;;;;4994747;28;20492;-56
2021/09/21 07:45:05;;;;;;;10.45;9.40;;;13.10;99.90;;;;;;5000491;28;20205;-52
2021/09/21 07:47:32;;;;;;;12.05;8.90;;;12.80;99.90;;;;;;4982707;28;20277;-54
2021/09/21 07:50:00;;;;;;;7.10;5.45;;;12.50;99.90;;;;;;4982932;28;20454;-57
2021/09/21 07:52:27;;;;;;;3.47;3.17;;;12.00;99.90;;;;;;4993052;28;20424;-53
2021/09/21 07:54:54;;;;;;;5.05;4.13;;;11.70;99.90;;;;;;4990332;28;20262;-51
2021/09/21 07:57:21;;;;;;;6.30;5.57;;;11.50;99.90;;;;;;4988590;28;20248;-58
2021/09/21 07:59:48;;;;;;;6.57;5.88;;;11.60;99.90;;;;;;4988665;28;20236;-57
2021/09/21 08:02:16;;;;;;;10.95;7.43;;;12.00;99.90;;;;;;4982943;28;20200;-53
2021/09/21 08:04:44;;;;;;;12.38;8.65;;;12.40;99.90;;;;;;4994407;28;20209;-56
2021/09/21 08:07:11;;;;;;;9.82;8.93;;;12.50;99.90;;;;;;4981083;28;20249;-60
2021/09/21 08:09:39;;;;;;;20.52;11.23;;;12.40;99.90;;;;;;4997472;28;20236;-57
2021/09/21 08:12:06;;;;;;;13.13;10.88;;;12.40;99.90;;;;;;5000524;28;20223;-53
2021/09/21 08:14:36;;;;;;;13.02;11.70;;;12.50;99.90;;;;;;4998836;28;20228;-56
2021/09/21 08:17:07;;;;;;;11.93;10.43;;;12.50;99.90;;;;;;4987111;28;20217;-58
2021/09/21 08:19:35;;;;;;;15.00;11.82;;;12.00;99.90;;;;;;4982498;28;20528;-56
2021/09/21 08:22:03;;;;;;;11.48;8.85;;;11.60;99.90;;;;;;4993078;28;20276;-57
2021/09/21 08:24:30;;;;;;;10.02;8.90;;;11.40;99.90;;;;;;4989460;28;20204;-53
2021/09/21 08:26:57;;;;;;;13.93;10.68;;;11.30;99.90;;;;;;4998999;28;20203;-56
2021/09/21 08:29:24;;;;;;;11.10;9.88;;;11.30;99.90;;;;;;4996567;28;20550;-53
2021/09/21 08:31:51;;;;;;;11.52;10.07;;;11.20;99.90;;;;;;4994418;28;20249;-57
2021/09/21 08:34:18;;;;;;;14.63;11.10;;;11.10;99.90;;;;;;4991072;28;20418;-58
2021/09/21 08:36:45;;;;;;;11.85;10.65;;;11.20;99.90;;;;;;4995622;28;20201;-59
2021/09/21 08:39:12;;;;;;;12.93;11.75;;;11.20;99.90;;;;;;4989441;28;20290;-52
2021/09/21 08:41:39;;;;;;;14.15;12.75;;;11.20;99.90;;;;;;4999487;28;20213;-57
2021/09/21 08:44:06;;;;;;;11.40;10.25;;;11.30;99.90;;;;;;4988125;28;20201;-56
2021/09/21 08:46:33;;;;;;;15.18;12.35;;;11.30;99.90;;;;;;4994586;28;20244;-57
2021/09/21 08:49:01;;;;;;;12.50;11.27;;;11.40;99.90;;;;;;4997553;28;20295;-55
2021/09/21 08:51:28;;;;;;;14.07;12.57;;;11.30;99.90;;;;;;4991099;28;20198;-53
2021/09/21 08:53:55;;;;;;;16.73;14.10;;;11.50;99.90;;;;;;4985740;28;20534;-52
2021/09/21 08:56:22;;;;;;;15.65;13.25;;;12.00;99.90;;;;;;4986297;28;20200;-55
2021/09/21 08:59:11;;;;;;;18.88;14.10;;;12.60;99.90;;;;;;4981071;28;20233;-58
2021/09/21 09:01:44;;;;;;;17.45;14.57;;;13.00;99.90;;;;;;4990191;28;20416;-56
2021/09/21 09:04:13;;;;;;;15.50;11.75;;;13.30;99.90;;;;;;4990827;28;20357;-60
2021/09/21 09:06:44;;;;;;;14.40;11.90;;;13.70;99.90;;;;;;5000251;28;20391;-57
2021/09/21 09:09:16;;;;;;;13.05;11.65;;;13.80;99.90;;;;;;4990797;28;20288;-57
2021/09/21 09:11:47;;;;;;;11.85;10.68;;;14.10;99.90;;;;;;4992715;28;20210;-54
2021/09/21 09:14:21;;;;;;;10.00;9.18;;;14.10;99.90;;;;;;4995224;28;20550;-55
2021/09/21 09:16:57;;;;;;;10.82;9.77;;;14.50;99.90;;;;;;5000759;28;20213;-54
2021/09/21 09:19:39;;;;;;;12.77;11.23;;;14.80;99.90;;;;;;4993183;28;20713;-53
2021/09/21 09:22:09;;;;;;;12.50;10.57;;;15.00;99.90;;;;;;4996443;28;20205;-51
2021/09/21 09:25:06;;;;;;;13.13;10.52;;;15.00;99.90;;;;;;4992805;28;20248;-51
2021/09/21 09:27:47;;;;;;;10.32;9.38;;;14.90;99.90;;;;;;4998608;28;20202;-57
2021/09/21 09:30:25;;;;;;;10.68;9.57;;;14.70;99.90;;;;;;4988901;28;20594;-55
2021/09/21 09:32:59;;;;;;;10.10;9.10;;;14.80;99.90;;;;;;4992069;28;20236;-55
2021/09/21 09:35:29;;;;;;;10.88;9.80;;;14.80;99.90;;;;;;4994515;28;20201;-54
2021/09/21 09:37:59;;;;;;;13.52;10.85;;;14.60;99.90;;;;;;4990578;28;20505;-58
2021/09/21 09:40:27;;;;;;;11.70;9.90;;;14.60;99.90;;;;;;4991126;28;20296;-56
2021/09/21 09:42:55;;;;;;;12.43;10.80;;;15.10;99.90;;;;;;4995102;28;20206;-55
2021/09/21 09:45:31;;;;;;;11.23;9.85;;;15.10;99.90;;;;;;4997073;28;20208;-55
2021/09/21 09:47:59;;;;;;;11.07;9.68;;;15.20;99.90;;;;;;5003324;28;20507;-57
2021/09/21 09:50:29;;;;;;;10.75;9.65;;;15.10;99.90;;;;;;4991783;28;20226;-57
2021/09/21 09:53:05;;;;;;;12.40;9.38;;;14.90;99.90;;;;;;4987418;28;20237;-57
2021/09/21 09:55:33;;;;;;;9.98;8.98;;;15.10;99.90;;;;;;5003202;28;20440;-58
2021/09/21 09:58:02;;;;;;;10.23;9.10;;;15.10;99.90;;;;;;4988990;28;20205;-58
2021/09/21 10:00:30;;;;;;;11.10;9.30;;;15.10;99.90;;;;;;4997192;28;20460;-57
2021/09/21 10:02:58;;;;;;;9.45;8.65;;;15.10;99.90;;;;;;4999983;28;20469;-59
2021/09/21 10:05:30;;;;;;;16.10;11.18;;;15.10;99.90;;;;;;4990106;28;20210;-58
2021/09/21 10:07:58;;;;;;;9.68;8.75;;;15.30;99.90;;;;;;4987729;28;20210;-51
2021/09/21 10:10:27;;;;;;;12.80;11.50;;;15.50;99.90;;;;;;4994925;28;20288;-52
2021/09/21 10:12:55;;;;;;;13.00;11.35;;;15.90;99.90;;;;;;4988747;28;20504;-58
2021/09/21 10:15:25;;;;;;;11.93;10.73;;;16.00;99.90;;;;;;4993882;28;20201;-55
2021/09/21 10:17:54;;;;;;;11.75;10.68;;;16.10;99.90;;;;;;5002463;28;20237;-54
2021/09/21 10:20:30;;;;;;;10.35;9.38;;;16.70;99.90;;;;;;4999098;28;20227;-57
2021/09/21 10:22:57;;;;;;;10.93;9.93;;;17.00;99.90;;;;;;4999646;28;20265;-56
2021/09/21 10:25:50;;;;;;;10.48;9.38;;;17.00;99.90;;;;;;5002695;28;20210;-58
2021/09/21 10:28:40;;;;;;;10.73;9.48;;;16.90;99.90;;;;;;4995960;28;20249;-58
2021/09/21 10:31:19;;;;;;;9.77;8.50;;;16.70;99.90;;;;;;5002590;28;20201;-56
2021/09/21 10:33:46;;;;;;;10.45;9.35;;;17.10;99.90;;;;;;5002596;28;20190;-59
2021/09/21 10:36:21;;;;;;;8.43;7.40;;;17.50;99.90;;;;;;4992200;28;20430;-55
2021/09/21 10:39:09;;;;;;;8.80;7.90;;;17.90;99.90;;;;;;5002504;28;20434;-57
2021/09/21 10:42:03;;;;;;;9.03;8.10;;;18.50;99.90;;;;;;4990881;28;20423;-58
2021/09/21 10:44:31;;;;;;;7.30;6.60;;;18.80;99.90;;;;;;5001921;28;20822;-55
2021/09/21 10:47:01;;;;;;;7.67;7.07;;;19.00;99.90;;;;;;4988232;28;20507;-58
2021/09/21 10:49:36;;;;;;;7.40;6.70;;;19.10;99.90;;;;;;5002207;28;20470;-61
2021/09/21 10:52:04;;;;;;;6.90;6.30;;;18.80;99.90;;;;;;4985124;28;20408;-58
2021/09/21 10:54:44;;;;;;;7.03;6.43;;;18.50;99.90;;;;;;4997336;28;20494;-58
2021/09/21 10:57:34;;;;;;;6.30;5.70;;;18.70;99.90;;;;;;4992834;28;20409;-60
2021/09/21 11:00:05;;;;;;;8.03;6.73;;;18.90;99.90;;;;;;4983496;28;20437;-52
2021/09/21 11:02:37;;;;;;;7.37;6.17;;;19.00;99.90;;;;;;4998830;28;20423;-58
2021/09/21 11:05:08;;;;;;;7.13;5.43;;;19.10;99.90;;;;;;4994129;28;20440;-58
2021/09/21 11:07:37;;;;;;;6.97;6.37;;;19.00;99.90;;;;;;4988387;28;20439;-58
2021/09/21 11:10:07;;;;;;;6.33;5.83;;;18.90;99.90;;;;;;5000693;28;20551;-57
2021/09/21 11:12:34;;;;;;;6.67;5.97;;;18.40;99.90;;;;;;4985046;28;20781;-59
2021/09/21 11:15:08;;;;;;;5.43;4.90;;;18.20;99.90;;;;;;4994218;28;20694;-54
2021/09/21 11:17:36;;;;;;;5.33;4.87;;;18.10;99.90;;;;;;4983891;28;20434;-60
2021/09/21 11:20:04;;;;;;;5.90;5.40;;;18.20;99.90;;;;;;5000188;28;20787;-59
2021/09/21 11:22:31;;;;;;;5.00;4.57;;;18.30;99.90;;;;;;4995028;28;20463;-53
2021/09/21 11:25:10;;;;;;;5.93;5.43;;;18.60;99.90;;;;;;4989814;28;20446;-58
2021/09/21 11:27:39;;;;;;;5.47;4.97;;;18.60;99.90;;;;;;4995767;28;20437;-59
2021/09/21 11:30:14;;;;;;;6.83;5.00;;;18.40;99.90;;;;;;4999096;28;20504;-58
2021/09/21 11:32:43;;;;;;;4.63;4.23;;;18.50;99.90;;;;;;4988419;28;20462;-60
2021/09/21 11:35:12;;;;;;;5.70;4.90;;;18.10;99.90;;;;;;4987642;28;20440;-59
2021/09/21 11:37:48;;;;;;;4.70;4.30;;;17.80;99.90;;;;;;5002113;28;20445;-56
2021/09/21 11:40:27;;;;;;;6.07;4.80;;;17.60;99.90;;;;;;4995881;28;20436;-57
2021/09/21 11:42:58;;;;;;;6.57;4.53;;;17.30;99.90;;;;;;4995905;28;20438;-57
2021/09/21 11:45:27;;;;;;;7.60;5.10;;;17.10;99.90;;;;;;4993157;28;20431;-55
2021/09/21 11:47:54;;;;;;;6.63;4.43;;;17.20;99.90;;;;;;4994133;28;20416;-56
2021/09/21 11:50:26;;;;;;;4.93;4.13;;;17.20;99.90;;;;;;4991500;28;20459;-59
2021/09/21 11:52:59;;;;;;;4.87;4.47;;;17.00;99.90;;;;;;4995219;28;20506;-59
2021/09/21 11:55:49;;;;;;;4.37;3.97;;;16.80;99.90;;;;;;4988480;28;20608;-57
2021/09/21 11:58:17;;;;;;;5.00;3.60;;;16.60;99.90;;;;;;4987401;28;20774;-59
2021/09/21 12:00:49;;;;;;;4.85;4.45;;;16.50;99.90;;;;;;4996695;28;20577;-58
2021/09/21 12:03:18;;;;;;;5.50;5.00;;;16.40;99.90;;;;;;4984822;28;20210;-59
2021/09/21 12:05:50;;;;;;;5.40;4.75;;;16.30;99.90;;;;;;4986307;28;20464;-54
2021/09/21 12:08:21;;;;;;;4.55;4.15;;;16.10;99.90;;;;;;5000291;28;20202;-52
2021/09/21 12:10:57;;;;;;;7.07;5.20;;;15.90;99.90;;;;;;5000262;28;20229;-60
2021/09/21 12:13:27;;;;;;;4.32;4.00;;;15.80;99.90;;;;;;4996193;28;20205;-57
2021/09/21 12:15:57;;;;;;;3.90;3.60;;;15.80;99.90;;;;;;4999764;28;20207;-56
2021/09/21 12:18:25;;;;;;;7.70;4.35;;;15.70;99.90;;;;;;5000483;28;20253;-57
2021/09/21 12:21:04;;;;;;;9.50;6.85;;;15.70;99.90;;;;;;4999667;28;20523;-56
2021/09/21 12:23:35;;;;;;;8.13;7.43;;;15.60;99.90;;;;;;4983163;28;20209;-57
2021/09/21 12:26:04;;;;;;;7.97;7.38;;;15.20;99.90;;;;;;4990276;28;20206;-57
2021/09/21 12:28:38;;;;;;;8.25;7.55;;;14.90;99.90;;;;;;4992011;28;20201;-59
2021/09/21 12:31:17;;;;;;;14.82;9.85;;;14.80;99.90;;;;;;4990477;28;20329;-55
2021/09/21 12:33:46;;;;;;;8.00;7.05;;;15.00;99.90;;;;;;4990644;28;20239;-58
2021/09/21 12:36:34;;;;;;;8.57;7.80;;;15.00;99.90;;;;;;4991987;28;21518;-58
2021/09/21 12:39:04;;;;;;;9.05;8.25;;;15.20;99.90;;;;;;4995776;28;20512;-59
2021/09/21 12:41:41;;;;;;;9.30;7.75;;;15.40;99.90;;;;;;4984561;28;20202;-58
2021/09/21 12:44:13;;;;;;;7.50;6.75;;;15.80;99.90;;;;;;4999158;28;20251;-59
2021/09/21 12:46:42;;;;;;;7.55;6.70;;;16.10;99.90;;;;;;4986109;28;20264;-57
2021/09/21 12:49:12;;;;;;;10.65;8.05;;;16.60;99.90;;;;;;5000062;28;20221;-61
2021/09/21 12:51:42;;;;;;;7.28;6.60;;;16.80;99.90;;;;;;4999118;28;20260;-60
2021/09/21 12:54:16;;;;;;;8.07;7.28;;;17.00;99.90;;;;;;4997709;28;20206;-54
2021/09/21 12:56:46;;;;;;;7.30;6.57;;;17.00;99.90;;;;;;4980821;28;20204;-61
2021/09/21 12:59:18;;;;;;;7.87;6.87;;;16.90;99.90;;;;;;4991126;28;20979;-58
2021/09/21 13:01:48;;;;;;;7.63;7.13;;;16.80;99.90;;;;;;4989776;28;20450;-58